Time;durP1;ratioP1;P1;durP2;ratioP2;P2;SDS_P1;SDS_P2;PMS_P1;PMS_P2;Temp;Humidity;BMP_temperature;BMP_pressure;BME280_temperature;BME280_humidity;BME280_pressure;Samples;Min_cycle;Max_cycle;Signal;HPM_P1;HPM_P2
2022/06/28 00:00:58;;;;;;;;;;;;;;;23.50;63.67;153563.11;1706528;83;21252;-62
2022/06/28 00:03:24;;;;;;;;;;;;;;;23.49;64.09;153560.50;1706503;83;20477;-63
2022/06/28 00:05:51;;;;;;;;;;;;;;;23.40;64.52;153539.58;1706666;84;20168;-62
2022/06/28 00:08:18;;;;;;;;;;;;;;;23.31;65.04;153516.00;1706512;83;20425;-61
2022/06/28 00:10:45;;;;;;;;;;;;;;;23.25;65.40;153500.25;1707296;84;20455;-62
2022/06/28 00:13:12;;;;;;;;;;;;;;;23.22;65.88;153493.73;1708294;82;20631;-62
2022/06/28 00:18:24;;;;;;;;;;;;;;;23.12;66.70;153467.53;1705461;84;20415;-61
2022/06/28 00:20:51;;;;;;;;;;;;;;;23.06;67.11;153453.13;1708136;83;20121;-63
2022/06/28 00:23:17;;;;;;;;;;;;;;;23.01;67.42;153440.06;1708135;83;20221;-62
2022/06/28 00:25:44;;;;;;;;;;;;;;;22.95;67.60;153425.66;1705202;83;21151;-63
2022/06/28 00:28:11;;;;;;;;;;;;;;;22.95;67.81;153424.38;1705729;83;20423;-61
2022/06/28 00:30:37;;;;;;;;;;;;;;;22.96;67.51;153426.98;1705484;82;20502;-61
2022/06/28 00:33:05;;;;;;;;;;;;;;;22.97;66.45;153429.59;1705674;83;20954;-62
2022/06/28 00:35:33;;;;;;;;;;;;;;;23.01;66.36;153440.06;1705166;83;20466;-61
2022/06/28 00:37:59;;;;;;;;;;;;;;;23.03;66.23;153445.28;1708171;82;21127;-62
2022/06/28 00:40:26;;;;;;;;;;;;;;;23.06;66.07;153453.13;1705131;82;20312;-60
2022/06/28 00:42:53;;;;;;;;;;;;;;;23.06;66.07;153453.13;1707043;82;20138;-60
2022/06/28 00:45:20;;;;;;;;;;;;;;;23.06;66.11;153453.13;1705272;84;20170;-60
2022/06/28 00:47:47;;;;;;;;;;;;;;;23.03;66.15;153445.28;1708156;82;20687;-60
2022/06/28 00:50:14;;;;;;;;;;;;;;;22.98;66.41;153432.22;1707901;82;21249;-60
2022/06/28 00:53:02;;;;;;;;;;;;;;;22.93;66.65;153420.42;1704789;84;20126;-60
2022/06/28 00:55:29;;;;;;;;;;;;;;;22.91;66.65;153413.91;1705160;83;20204;-61
2022/06/28 00:57:55;;;;;;;;;;;;;;;22.86;66.68;153403.41;1705537;83;20202;-61
2022/06/28 01:00:22;;;;;;;;;;;;;;;22.82;66.83;153392.95;1708003;84;20161;-63
2022/06/28 01:02:50;;;;;;;;;;;;;;;22.77;67.09;153379.88;1704257;84;21142;-61
2022/06/28 01:05:17;;;;;;;;;;;;;;;22.72;66.91;153366.81;1705606;82;20233;-60
2022/06/28 01:07:44;;;;;;;;;;;;;;;22.66;67.23;153352.41;1712993;82;20158;-61
2022/06/28 01:10:11;;;;;;;;;;;;;;;22.62;67.34;153341.95;1701631;84;20136;-60
2022/06/28 01:12:38;;;;;;;;;;;;;;;22.62;67.33;153341.95;1711441;84;20161;-61
2022/06/28 01:15:08;;;;;;;;;;;;;;;22.60;67.36;153338.00;1707178;83;21227;-61
2022/06/28 01:17:42;;;;;;;;;;;;;;;22.60;67.40;153336.72;1702112;84;20426;-61
2022/06/28 01:20:16;;;;;;;;;;;;;;;22.57;67.49;153328.88;1705049;84;20102;-61
2022/06/28 01:22:51;;;;;;;;;;;;;;;22.55;67.62;153324.94;1704823;84;20422;-62
2022/06/28 01:25:18;;;;;;;;;;;;;;;22.52;67.69;153317.09;1706702;83;20467;-60
2022/06/28 01:27:46;;;;;;;;;;;;;;;22.48;67.95;153306.64;1707079;83;21898;-62
2022/06/28 01:30:13;;;;;;;;;;;;;;;22.44;67.79;153296.14;1706589;83;20149;-62
2022/06/28 01:32:56;;;;;;;;;;;;;;;22.40;68.13;153286.97;1706063;84;20201;-62
2022/06/28 01:35:24;;;;;;;;;;;;;;;22.33;68.33;153269.95;1706506;84;20182;-61
2022/06/28 01:37:51;;;;;;;;;;;;;;;22.29;68.55;153259.50;1706629;84;20406;-61
2022/06/28 01:40:19;;;;;;;;;;;;;;;22.24;68.67;153246.44;1706766;83;21089;-62
2022/06/28 01:42:46;;;;;;;;;;;;;;;22.21;68.86;153238.53;1706514;83;20576;-61
2022/06/28 01:45:13;;;;;;;;;;;;;;;22.18;68.97;153230.69;1706759;83;20184;-62
2022/06/28 01:47:44;;;;;;;;;;;;;;;22.16;68.89;153225.47;1706600;83;20187;-61
2022/06/28 01:50:17;;;;;;;;;;;;;;;22.13;68.82;153217.63;1705665;83;20170;-64
2022/06/28 01:52:46;;;;;;;;;;;;;;;22.10;68.87;153209.80;1709042;84;21112;-61
2022/06/28 01:55:14;;;;;;;;;;;;;;;22.09;68.96;153207.19;1706558;83;20202;-61
2022/06/28 01:57:42;;;;;;;;;;;;;;;22.04;68.94;153195.39;1708943;84;20138;-62
2022/06/28 02:00:10;;;;;;;;;;;;;;;22.01;69.07;153188.89;1708934;84;20438;-61
2022/06/28 02:02:43;;;;;;;;;;;;;;;22.00;69.05;153184.94;1708840;84;20159;-61
2022/06/28 02:05:21;;;;;;;;;;;;;;;21.97;69.15;153178.39;1706520;83;22206;-62
2022/06/28 02:07:49;;;;;;;;;;;;;;;21.93;69.17;153167.94;1708919;84;20176;-62
2022/06/28 02:10:18;;;;;;;;;;;;;;;21.90;69.37;153160.09;1701829;84;20198;-61
2022/06/28 02:12:47;;;;;;;;;;;;;;;21.88;69.46;153154.88;1680542;84;21312;-61
2022/06/28 02:15:14;;;;;;;;;;;;;;;21.89;69.48;153157.48;1680580;84;20138;-61
2022/06/28 02:17:42;;;;;;;;;;;;;;;21.87;69.55;153152.25;1680555;85;21191;-61
2022/06/28 02:20:10;;;;;;;;;;;;;;;21.86;69.56;153150.94;1680494;84;20154;-62
2022/06/28 02:22:37;;;;;;;;;;;;;;;21.87;69.57;153152.25;1670664;84;20458;-62
2022/06/28 02:25:05;;;;;;;;;;;;;;;21.85;69.61;153147.03;1680453;85;20699;-62
2022/06/28 02:27:32;;;;;;;;;;;;;;;21.82;69.63;153140.47;1680422;84;20154;-61
2022/06/28 02:29:59;;;;;;;;;;;;;;;21.83;69.69;153141.81;1680568;85;21218;-62
2022/06/28 02:32:26;;;;;;;;;;;;;;;21.84;69.69;153144.42;1680309;84;20250;-62
2022/06/28 02:40:24;;;;;;;;;;;;;;;21.95;69.11;153173.16;1680229;84;20205;-62
2022/06/28 02:42:56;;;;;;;;;;;;;;;22.00;69.04;153184.94;1680278;84;21249;-62
2022/06/28 02:45:24;;;;;;;;;;;;;;;22.00;68.82;153184.94;1680012;84;20490;-62
2022/06/28 02:47:52;;;;;;;;;;;;;;;22.00;68.70;153184.94;1680399;85;20174;-62
2022/06/28 02:50:19;;;;;;;;;;;;;;;22.01;68.62;153188.89;1678534;84;20154;-61
2022/06/28 02:52:46;;;;;;;;;;;;;;;22.01;68.74;153188.89;1678129;85;20130;-62
2022/06/28 02:55:13;;;;;;;;;;;;;;;22.01;68.84;153187.56;1678401;85;21258;-60
2022/06/28 02:57:40;;;;;;;;;;;;;;;21.99;69.04;153182.33;1678300;85;20438;-61
2022/06/28 03:00:09;;;;;;;;;;;;;;;21.98;69.19;153181.00;1678209;84;20624;-60
2022/06/28 03:02:37;;;;;;;;;;;;;;;21.98;69.22;153181.00;1678425;84;20198;-61
2022/06/28 03:05:06;;;;;;;;;;;;;;;21.97;69.36;153178.39;1678282;85;20141;-61
2022/06/28 03:07:33;;;;;;;;;;;;;;;21.99;69.56;153183.61;1678535;84;20739;-60
2022/06/28 03:10:00;;;;;;;;;;;;;;;22.00;69.53;153186.28;1678200;84;20197;-61
2022/06/28 03:12:28;;;;;;;;;;;;;;;22.02;69.48;153191.50;1678076;85;20201;-61
2022/06/28 03:14:55;;;;;;;;;;;;;;;22.02;69.43;153190.17;1678135;84;20144;-61
2022/06/28 03:17:23;;;;;;;;;;;;;;;22.03;69.42;153194.11;1678170;85;20170;-61
2022/06/28 03:19:49;;;;;;;;;;;;;;;22.04;69.19;153196.72;1678297;84;21256;-61
2022/06/28 03:22:16;;;;;;;;;;;;;;;22.06;69.00;153199.34;1678278;85;20170;-62
2022/06/28 03:24:43;;;;;;;;;;;;;;;22.09;68.89;153207.19;1678294;85;20189;-61
2022/06/28 03:27:10;;;;;;;;;;;;;;;22.12;68.63;153215.02;1678159;85;20797;-60
2022/06/28 03:29:37;;;;;;;;;;;;;;;22.20;68.49;153235.92;1678246;85;20189;-60
2022/06/28 03:32:06;;;;;;;;;;;;;;;22.29;68.20;153259.50;1678244;85;21339;-61
2022/06/28 03:34:33;;;;;;;;;;;;;;;22.38;67.79;153280.41;1678093;85;20487;-59
2022/06/28 03:37:00;;;;;;;;;;;;;;;22.50;67.47;153311.88;1678355;84;20171;-61
2022/06/28 03:39:29;;;;;;;;;;;;;;;22.60;66.81;153336.72;1677620;84;20196;-61
2022/06/28 03:41:55;;;;;;;;;;;;;;;22.69;66.39;153358.97;1678127;84;20471;-60
2022/06/28 03:44:22;;;;;;;;;;;;;;;22.78;65.75;153382.50;1678207;85;21275;-63
2022/06/28 03:46:49;;;;;;;;;;;;;;;22.87;65.37;153404.73;1678191;84;20439;-60
2022/06/28 03:49:30;;;;;;;;;;;;;;;22.96;64.94;153426.98;1685614;83;20350;-61
2022/06/28 03:51:59;;;;;;;;;;;;;;;23.07;63.97;153454.47;1708828;84;20169;-61
2022/06/28 03:54:27;;;;;;;;;;;;;;;23.10;63.86;153463.64;1707597;83;20499;-60
2022/06/28 03:57:04;;;;;;;;;;;;;;;23.16;63.51;153479.33;1698876;83;21247;-61
2022/06/28 03:59:31;;;;;;;;;;;;;;;23.26;63.27;153502.91;1708959;84;20177;-61
2022/06/28 04:01:58;;;;;;;;;;;;;;;23.35;62.75;153525.16;1708699;84;20457;-61
2022/06/28 04:04:25;;;;;;;;;;;;;;;23.43;62.49;153547.42;1709049;84;20618;-61
2022/06/28 04:06:52;;;;;;;;;;;;;;;23.50;62.04;153563.11;1709020;84;20427;-61
2022/06/28 04:09:19;;;;;;;;;;;;;;;23.58;62.16;153584.09;1709051;84;21260;-61
2022/06/28 04:11:48;;;;;;;;;;;;;;;23.70;61.52;153614.19;1710421;82;21790;-60
2022/06/28 04:14:15;;;;;;;;;;;;;;;23.81;61.16;153641.69;1701078;82;20439;-61
2022/06/28 04:16:42;;;;;;;;;;;;;;;23.90;60.73;153665.22;1711536;83;20202;-61
2022/06/28 04:19:10;;;;;;;;;;;;;;;23.94;60.37;153675.69;1680093;83;20150;-61
2022/06/28 04:21:41;;;;;;;;;;;;;;;23.96;60.30;153680.92;1709258;82;21832;-61
2022/06/28 04:24:10;;;;;;;;;;;;;;;24.00;60.35;153691.44;1710451;82;20410;-60
2022/06/28 04:26:38;;;;;;;;;;;;;;;24.03;59.95;153699.33;1700250;82;20180;-61
2022/06/28 04:29:07;;;;;;;;;;;;;;;24.08;60.01;153709.80;1713425;83;20172;-61
2022/06/28 04:31:34;;;;;;;;;;;;;;;24.16;59.49;153732.06;1701500;83;20464;-60
2022/06/28 04:34:01;;;;;;;;;;;;;;;24.21;59.50;153742.53;1701782;83;20642;-61
2022/06/28 04:36:31;;;;;;;;;;;;;;;24.28;59.71;153762.17;1700994;84;20197;-61
2022/06/28 04:38:57;;;;;;;;;;;;;;;24.41;59.25;153793.56;1700858;84;20132;-61
2022/06/28 04:41:26;;;;;;;;;;;;;;;24.54;58.37;153827.64;1700599;82;20212;-61
2022/06/28 04:44:04;;;;;;;;;;;;;;;24.60;58.26;153842.06;1700519;83;20217;-61
2022/06/28 04:46:32;;;;;;;;;;;;;;;24.66;57.99;153856.48;1703034;83;21718;-61
2022/06/28 04:49:01;;;;;;;;;;;;;;;24.73;57.87;153876.08;1701193;83;20426;-61
2022/06/28 04:51:30;;;;;;;;;;;;;;;24.84;57.71;153903.64;1700239;83;20117;-61
2022/06/28 04:53:56;;;;;;;;;;;;;;;24.91;57.12;153920.67;1701505;83;20145;-61
2022/06/28 04:56:24;;;;;;;;;;;;;;;24.93;56.77;153924.63;1718028;82;20209;-61
2022/06/28 04:58:51;;;;;;;;;;;;;;;24.89;56.83;153916.78;1718199;83;21213;-60
2022/06/28 05:01:19;;;;;;;;;;;;;;;24.94;57.02;153927.25;1701028;84;20173;-61
2022/06/28 05:03:46;;;;;;;;;;;;;;;25.02;56.75;153949.52;1718108;82;20180;-61
2022/06/28 05:06:15;;;;;;;;;;;;;;;25.11;56.63;153970.47;1696375;83;20398;-61
2022/06/28 05:08:44;;;;;;;;;;;;;;;25.15;56.37;153982.27;1701577;84;20209;-61
2022/06/28 05:11:11;;;;;;;;;;;;;;;25.18;56.49;153988.78;1716389;83;21300;-61
2022/06/28 05:13:56;;;;;;;;;;;;;;;25.22;56.58;153997.97;1716717;83;20243;-59
2022/06/28 05:16:23;;;;;;;;;;;;;;;25.25;56.77;154007.16;1716669;83;20149;-60
2022/06/28 05:18:51;;;;;;;;;;;;;;;25.41;56.34;154047.77;1716787;83;20073;-60
2022/06/28 05:21:21;;;;;;;;;;;;;;;25.43;55.74;154051.72;1716519;83;20212;-61
2022/06/28 05:23:47;;;;;;;;;;;;;;;25.49;55.96;154067.48;1716354;83;21151;-61
2022/06/28 05:26:25;;;;;;;;;;;;;;;25.57;55.61;154087.14;1726346;82;20145;-61
2022/06/28 05:28:54;;;;;;;;;;;;;;;25.62;55.64;154100.23;1716158;82;20229;-61
2022/06/28 05:31:21;;;;;;;;;;;;;;;25.69;55.54;154118.56;1716505;83;20155;-60
2022/06/28 05:33:47;;;;;;;;;;;;;;;25.81;55.53;154147.42;1713713;83;20292;-61
2022/06/28 05:36:14;;;;;;;;;;;;;;;25.94;55.29;154180.19;1717179;83;21298;-60
2022/06/28 05:38:41;;;;;;;;;;;;;;;26.08;54.91;154216.84;1680303;83;20232;-60
2022/06/28 05:41:09;;;;;;;;;;;;;;;26.25;54.47;154260.20;1685990;84;20213;-61
2022/06/28 05:43:36;;;;;;;;;;;;;;;26.43;54.19;154304.78;1714983;82;20591;-61
2022/06/28 05:46:03;;;;;;;;;;;;;;;26.62;54.11;154351.94;1726459;82;20222;-61
2022/06/28 05:48:32;;;;;;;;;;;;;;;26.76;52.97;154388.67;1707417;82;21259;-61
2022/06/28 05:50:59;;;;;;;;;;;;;;;26.81;52.51;154401.77;1723479;82;20182;-62
2022/06/28 05:53:26;;;;;;;;;;;;;;;26.84;51.61;154409.64;1732448;82;20159;-61
2022/06/28 05:55:53;;;;;;;;;;;;;;;26.83;51.27;154407.02;1719973;82;20132;-62
2022/06/28 05:58:19;;;;;;;;;;;;;;;26.88;51.63;154420.22;1733669;82;20687;-61
2022/06/28 06:00:47;;;;;;;;;;;;;;;27.00;51.36;154450.38;1726784;82;22002;-61
2022/06/28 06:03:15;;;;;;;;;;;;;;;27.12;51.25;154480.53;1747625;82;20196;-62
2022/06/28 06:05:42;;;;;;;;;;;;;;;27.31;50.43;154527.77;1733389;82;20219;-62
2022/06/28 06:08:09;;;;;;;;;;;;;;;27.33;49.43;154533.00;1740566;82;20175;-62
2022/06/28 06:10:36;;;;;;;;;;;;;;;27.23;49.50;154506.75;1729956;82;20212;-62
2022/06/28 06:13:03;;;;;;;;;;;;;;;27.14;49.49;154484.44;1728189;81;21218;-61
2022/06/28 06:15:30;;;;;;;;;;;;;;;27.08;49.65;154470.06;1744769;82;20457;-61
2022/06/28 06:17:57;;;;;;;;;;;;;;;27.09;50.29;154472.67;1712055;82;20232;-61
2022/06/28 06:20:25;;;;;;;;;;;;;;;27.14;50.06;154484.44;1681970;83;20509;-61
2022/06/28 06:22:52;;;;;;;;;;;;;;;27.14;49.76;154485.78;1729471;81;20172;-60
2022/06/28 06:25:39;;;;;;;;;;;;;;;27.14;49.73;154485.78;1656050;85;21220;-61
2022/06/28 06:28:06;;;;;;;;;;;;;;;27.20;49.57;154498.88;1662960;84;20466;-60
2022/06/28 06:30:33;;;;;;;;;;;;;;;27.27;49.68;154517.23;1644878;84;20238;-60
2022/06/28 06:33:21;;;;;;;;;;;;;;;27.37;49.46;154542.16;1730143;81;20156;-60
2022/06/28 06:36:02;;;;;;;;;;;;;;;27.42;49.35;154556.59;1731624;82;20415;-61
2022/06/28 06:38:29;;;;;;;;;;;;;;;27.54;49.29;154585.53;1731851;82;21147;-61
2022/06/28 06:40:58;;;;;;;;;;;;;;;27.57;48.74;154594.69;1735417;82;20139;-59
2022/06/28 06:43:28;;;;;;;;;;;;;;;27.65;48.75;154613.08;1713211;83;20203;-60
2022/06/28 06:45:57;;;;;;;;;;;;;;;27.72;48.47;154632.72;1714059;82;20454;-60
2022/06/28 06:48:24;;;;;;;;;;;;;;;27.73;48.10;154634.06;1710747;81;20529;-60
2022/06/28 06:50:51;;;;;;;;;;;;;;;27.72;48.10;154632.72;1734270;81;21259;-60
2022/06/28 06:53:21;;;;;;;;;;;;;;;27.81;48.14;154655.03;1725654;82;20167;-60
2022/06/28 06:55:48;;;;;;;;;;;;;;;27.86;47.86;154666.84;1736477;82;20462;-62
2022/06/28 06:58:15;;;;;;;;;;;;;;;27.87;47.77;154670.81;1728561;82;20187;-60
2022/06/28 07:00:42;;;;;;;;;;;;;;;27.98;47.88;154698.36;1745619;80;20182;-60
2022/06/28 07:03:09;;;;;;;;;;;;;;;28.13;47.49;154735.06;1727115;81;21237;-61
2022/06/28 07:05:38;;;;;;;;;;;;;;;28.19;47.22;154750.91;1722284;82;20187;-60
2022/06/28 07:08:07;;;;;;;;;;;;;;;28.29;47.18;154777.12;1720208;82;20175;-61
2022/06/28 07:10:36;;;;;;;;;;;;;;;28.41;46.51;154806.03;1723845;82;20169;-60
2022/06/28 07:13:02;;;;;;;;;;;;;;;28.55;45.86;154842.75;1717853;83;20523;-61
2022/06/28 07:15:29;;;;;;;;;;;;;;;28.60;45.65;154855.86;1729341;82;21232;-61
2022/06/28 07:17:56;;;;;;;;;;;;;;;28.70;45.41;154880.80;1725919;82;20308;-61
2022/06/28 07:20:23;;;;;;;;;;;;;;;28.75;45.08;154892.62;1710876;81;20197;-61
2022/06/28 07:22:50;;;;;;;;;;;;;;;28.76;44.68;154895.25;1720875;82;20448;-60
2022/06/28 07:25:19;;;;;;;;;;;;;;;28.81;44.56;154908.42;1678678;85;20176;-62
2022/06/28 07:27:46;;;;;;;;;;;;;;;28.90;44.29;154929.45;1694321;82;21248;-62
2022/06/28 07:30:13;;;;;;;;;;;;;;;28.88;44.47;154926.84;1748545;82;20450;-61
2022/06/28 07:32:40;;;;;;;;;;;;;;;28.93;45.22;154937.33;1704728;82;20204;-62
2022/06/28 07:35:07;;;;;;;;;;;;;;;29.06;46.03;154971.44;1689064;83;20518;-61
2022/06/28 07:37:36;;;;;;;;;;;;;;;29.22;46.53;155010.84;1659872;85;20434;-61
2022/06/28 07:40:05;;;;;;;;;;;;;;;29.38;46.48;155052.88;1738958;81;21147;-62
2022/06/28 07:42:37;;;;;;;;;;;;;;;29.50;45.41;155081.78;1714102;82;20210;-62
2022/06/28 07:45:22;;;;;;;;;;;;;;;29.60;44.23;155108.08;1718049;83;20493;-62
2022/06/28 07:47:50;;;;;;;;;;;;;;;29.64;43.64;155117.28;1718724;82;20661;-62
2022/06/28 07:53:04;;;;;;;;;;;;;;;29.54;44.17;155092.33;1745698;82;21241;-61
2022/06/28 07:55:33;;;;;;;;;;;;;;;29.63;44.97;155115.95;1729502;81;20204;-61
2022/06/28 07:58:01;;;;;;;;;;;;;;;29.70;44.25;155133.03;1728885;82;20173;-62
2022/06/28 08:00:29;;;;;;;;;;;;;;;29.69;43.84;155131.69;1721146;81;20692;-62
2022/06/28 08:02:58;;;;;;;;;;;;;;;29.69;45.15;155131.69;1718362;82;20175;-62
2022/06/28 08:05:26;;;;;;;;;;;;;;;29.77;45.50;155150.11;1723967;82;21147;-63
2022/06/28 08:07:53;;;;;;;;;;;;;;;29.92;45.95;155189.48;1688969;82;20172;-62
2022/06/28 08:10:22;;;;;;;;;;;;;;;29.97;45.72;155202.66;1733397;80;20174;-61
2022/06/28 08:12:49;;;;;;;;;;;;;;;29.98;45.92;155205.28;1701576;82;20811;-63
2022/06/28 08:15:16;;;;;;;;;;;;;;;29.96;45.50;155200.03;1727371;82;20204;-62
2022/06/28 08:17:44;;;;;;;;;;;;;;;29.76;45.69;155147.50;1719451;82;21258;-62
2022/06/28 08:20:12;;;;;;;;;;;;;;;29.58;46.04;155102.83;1721602;81;20201;-62
2022/06/28 08:22:39;;;;;;;;;;;;;;;29.49;45.78;155079.16;1732873;81;20218;-61
2022/06/28 08:25:07;;;;;;;;;;;;;;;29.44;45.63;155067.38;1721736;82;20475;-61
2022/06/28 08:27:34;;;;;;;;;;;;;;;29.39;45.33;155054.16;1721060;82;20475;-61
2022/06/28 08:30:00;;;;;;;;;;;;;;;29.37;45.38;155050.25;1730539;82;22050;-61
2022/06/28 08:32:27;;;;;;;;;;;;;;;29.38;45.81;155051.53;1722498;82;20122;-62
2022/06/28 08:34:54;;;;;;;;;;;;;;;29.37;45.97;155048.91;1718957;82;20146;-61
2022/06/28 08:37:21;;;;;;;;;;;;;;;29.29;45.53;155029.20;1721671;82;20178;-61
2022/06/28 08:39:48;;;;;;;;;;;;;;;29.18;45.82;155000.34;1717661;82;20233;-62
2022/06/28 08:42:16;;;;;;;;;;;;;;;29.10;45.76;154981.97;1719701;82;21152;-62
2022/06/28 08:44:43;;;;;;;;;;;;;;;29.01;45.53;154958.31;1722146;81;20140;-61
2022/06/28 08:47:10;;;;;;;;;;;;;;;29.04;45.17;154966.19;1722731;82;20201;-61
2022/06/28 08:49:41;;;;;;;;;;;;;;;29.08;45.26;154975.39;1721862;82;20185;-61
2022/06/28 08:52:08;;;;;;;;;;;;;;;29.07;45.02;154974.11;1717992;82;20207;-61
2022/06/28 08:54:35;;;;;;;;;;;;;;;29.12;44.97;154987.22;1721738;83;21257;-61
2022/06/28 08:57:05;;;;;;;;;;;;;;;29.20;44.83;155005.59;1728493;81;20152;-60
2022/06/28 08:59:31;;;;;;;;;;;;;;;29.24;45.12;155017.42;1704188;82;20179;-60
2022/06/28 09:01:58;;;;;;;;;;;;;;;29.33;45.01;155039.75;1707869;82;20190;-61
2022/06/28 09:04:25;;;;;;;;;;;;;;;29.40;44.63;155058.11;1707173;84;20143;-61
2022/06/28 09:06:52;;;;;;;;;;;;;;;29.51;44.35;155085.73;1709424;82;21313;-61
2022/06/28 09:09:18;;;;;;;;;;;;;;;29.63;43.86;155115.95;1706181;83;20181;-60
2022/06/28 09:11:46;;;;;;;;;;;;;;;29.67;43.34;155125.16;1711632;82;20144;-60
2022/06/28 09:14:21;;;;;;;;;;;;;;;29.69;42.62;155131.69;1721089;82;20321;-61
2022/06/28 09:16:48;;;;;;;;;;;;;;;29.70;42.67;155134.31;1704527;82;20409;-61
2022/06/28 09:19:15;;;;;;;;;;;;;;;29.77;42.41;155151.41;1712853;82;21138;-61
2022/06/28 09:21:43;;;;;;;;;;;;;;;29.84;42.31;155169.83;1706644;82;20143;-62
2022/06/28 09:24:10;;;;;;;;;;;;;;;29.92;42.21;155189.48;1713064;82;20195;-61
2022/06/28 09:26:37;;;;;;;;;;;;;;;30.03;42.50;155215.83;1707112;83;20574;-62
2022/06/28 09:29:06;;;;;;;;;;;;;;;30.14;42.56;155244.70;1718430;82;20208;-61
2022/06/28 09:31:33;;;;;;;;;;;;;;;30.20;42.33;155260.50;1698287;83;21155;-62
2022/06/28 09:34:04;;;;;;;;;;;;;;;30.22;41.69;155265.75;1710533;82;20148;-62
2022/06/28 09:36:35;;;;;;;;;;;;;;;30.19;41.28;155257.88;1708824;82;20510;-61
2022/06/28 09:39:17;;;;;;;;;;;;;;;30.15;41.04;155247.33;1710972;82;20180;-61
2022/06/28 09:41:46;;;;;;;;;;;;;;;30.16;40.92;155249.95;1709697;82;20402;-62
2022/06/28 09:44:13;;;;;;;;;;;;;;;30.18;40.81;155255.25;1713064;82;21251;-62
2022/06/28 09:46:40;;;;;;;;;;;;;;;30.19;40.66;155257.88;1710817;82;20208;-61
2022/06/28 09:49:07;;;;;;;;;;;;;;;30.25;40.52;155273.63;1706202;82;20158;-60
2022/06/28 09:51:35;;;;;;;;;;;;;;;30.32;39.76;155289.38;1726409;82;20175;-61
2022/06/28 09:54:05;;;;;;;;;;;;;;;30.36;39.37;155299.89;1706462;82;20150;-61
2022/06/28 09:56:39;;;;;;;;;;;;;;;30.42;38.94;155315.69;1707552;82;21234;-62
2022/06/28 09:59:06;;;;;;;;;;;;;;;30.51;38.83;155339.31;1722590;82;20212;-61
2022/06/28 10:01:33;;;;;;;;;;;;;;;30.62;38.55;155365.63;1707431;82;20515;-60
2022/06/28 10:04:00;;;;;;;;;;;;;;;30.72;37.90;155391.94;1709172;82;21058;-61
2022/06/28 10:06:27;;;;;;;;;;;;;;;30.79;37.80;155409.03;1676229;84;20183;-61
2022/06/28 10:08:54;;;;;;;;;;;;;;;30.90;37.74;155436.63;1689034;83;21249;-61
2022/06/28 10:11:21;;;;;;;;;;;;;;;30.97;37.06;155455.00;1732800;82;20152;-61
2022/06/28 10:16:47;;;;;;;;;;;;;;;31.09;35.89;155486.56;1721489;82;20634;-61
2022/06/28 10:19:18;;;;;;;;;;;;;;;31.21;35.76;155515.50;1712143;82;20198;-61
2022/06/28 10:21:47;;;;;;;;;;;;;;;31.26;35.99;155529.97;1708382;82;21151;-60
2022/06/28 10:24:14;;;;;;;;;;;;;;;31.30;35.39;155539.19;1708435;82;20193;-61
2022/06/28 10:26:45;;;;;;;;;;;;;;;31.32;34.70;155544.45;1719436;82;20190;-61
2022/06/28 10:29:13;;;;;;;;;;;;;;;31.37;34.30;155557.58;1710687;82;20173;-61
2022/06/28 10:31:41;;;;;;;;;;;;;;;31.44;33.63;155574.67;1719797;82;20182;-61
2022/06/28 10:34:12;;;;;;;;;;;;;;;31.48;33.64;155583.84;1726394;82;21916;-61
2022/06/28 10:36:47;;;;;;;;;;;;;;;31.56;34.77;155604.91;1703557;81;20241;-60
2022/06/28 10:39:18;;;;;;;;;;;;;;;31.58;35.39;155610.17;1726259;81;20202;-60
2022/06/28 10:41:50;;;;;;;;;;;;;;;31.63;37.34;155623.31;1732761;82;20154;-61
2022/06/28 10:44:22;;;;;;;;;;;;;;;31.64;37.70;155625.92;1707855;82;20222;-60
2022/06/28 10:47:09;;;;;;;;;;;;;;;31.61;40.85;155618.05;1707914;82;21208;-61
2022/06/28 10:49:45;;;;;;;;;;;;;;;31.49;42.75;155586.47;1729832;82;20153;-61
2022/06/28 10:52:32;;;;;;;;;;;;;;;31.34;43.85;155549.70;1712386;82;20475;-61
2022/06/28 10:55:03;;;;;;;;;;;;;;;31.17;44.46;155506.28;1721720;82;20134;-61
2022/06/28 10:57:35;;;;;;;;;;;;;;;30.95;44.76;155449.75;1738617;81;20208;-60
2022/06/28 11:00:10;;;;;;;;;;;;;;;30.78;44.64;155406.39;1715019;82;21142;-61
2022/06/28 11:02:56;;;;;;;;;;;;;;;30.69;44.61;155384.05;1715538;82;20178;-62
2022/06/28 11:05:25;;;;;;;;;;;;;;;30.59;44.53;155360.31;1731818;82;20486;-60
2022/06/28 11:08:01;;;;;;;;;;;;;;;30.48;43.69;155331.44;1742013;82;20256;-60
2022/06/28 11:10:27;;;;;;;;;;;;;;;30.29;43.25;155284.13;1716155;82;20214;-60
2022/06/28 11:12:55;;;;;;;;;;;;;;;30.18;43.23;155255.25;1712110;83;21320;-61
2022/06/28 11:15:35;;;;;;;;;;;;;;;30.12;43.16;155240.80;1676209;82;20420;-61
2022/06/28 11:18:01;;;;;;;;;;;;;;;30.08;43.15;155228.95;1710376;82;20306;-61
2022/06/28 11:20:30;;;;;;;;;;;;;;;30.01;43.86;155211.81;1727429;82;20180;-61
2022/06/28 11:22:56;;;;;;;;;;;;;;;30.01;43.10;155211.81;1706676;82;20560;-62
2022/06/28 11:25:24;;;;;;;;;;;;;;;30.01;43.14;155211.81;1719902;82;20656;-62
2022/06/28 11:27:55;;;;;;;;;;;;;;;29.97;43.30;155202.66;1732556;82;20171;-62
2022/06/28 11:30:27;;;;;;;;;;;;;;;29.95;43.43;155197.36;1713998;82;20179;-61
2022/06/28 11:32:58;;;;;;;;;;;;;;;29.95;43.54;155197.36;1731836;82;20757;-61
2022/06/28 11:35:27;;;;;;;;;;;;;;;29.94;42.09;155194.73;1713798;82;20179;-61
2022/06/28 11:37:56;;;;;;;;;;;;;;;29.87;42.01;155177.69;1713906;82;21098;-61
2022/06/28 11:40:29;;;;;;;;;;;;;;;29.83;42.29;155165.86;1731810;82;20198;-61
2022/06/28 11:43:04;;;;;;;;;;;;;;;29.80;42.00;155159.28;1725112;82;20145;-61
2022/06/28 11:45:36;;;;;;;;;;;;;;;29.77;40.31;155150.11;1714742;82;20199;-62
2022/06/28 11:48:09;;;;;;;;;;;;;;;29.80;39.55;155157.98;1707911;83;20145;-62
2022/06/28 11:50:53;;;;;;;;;;;;;;;29.90;38.73;155184.23;1714889;82;21093;-61
2022/06/28 11:53:20;;;;;;;;;;;;;;;30.03;38.13;155217.13;1710875;82;20198;-61
2022/06/28 11:55:51;;;;;;;;;;;;;;;30.15;37.51;155248.67;1715307;82;20459;-61
2022/06/28 11:58:33;;;;;;;;;;;;;;;30.26;37.02;155274.92;1709053;83;20463;-61
2022/06/28 12:01:12;;;;;;;;;;;;;;;30.38;37.17;155305.14;1704823;82;20396;-61
2022/06/28 12:03:45;;;;;;;;;;;;;;;30.52;37.01;155341.94;1717453;82;21135;-62
2022/06/28 12:06:13;;;;;;;;;;;;;;;30.61;37.21;155364.33;1713539;82;20530;-62
2022/06/28 12:08:49;;;;;;;;;;;;;;;30.72;36.93;155393.22;1722160;82;20577;-62
2022/06/28 12:11:37;;;;;;;;;;;;;;;30.80;36.74;155412.94;1712468;82;20164;-62
2022/06/28 12:14:06;;;;;;;;;;;;;;;30.84;36.45;155422.16;1709012;82;20190;-61
2022/06/28 12:16:49;;;;;;;;;;;;;;;30.85;36.61;155426.13;1719380;82;21133;-61
2022/06/28 12:19:19;;;;;;;;;;;;;;;30.85;36.52;155426.13;1710154;84;20220;-61
2022/06/28 12:22:04;;;;;;;;;;;;;;;30.87;36.49;155431.38;1717210;82;20164;-61
2022/06/28 12:24:47;;;;;;;;;;;;;;;30.90;36.23;155437.91;1727655;82;20842;-61
2022/06/28 12:27:17;;;;;;;;;;;;;;;30.94;36.32;155447.13;1704171;82;20161;-61
2022/06/28 12:29:44;;;;;;;;;;;;;;;31.01;36.40;155465.50;1710536;82;21303;-61
2022/06/28 12:32:10;;;;;;;;;;;;;;;31.09;36.02;155486.56;1709745;82;20207;-61
2022/06/28 12:34:40;;;;;;;;;;;;;;;31.14;35.74;155499.69;1705186;83;20179;-61
2022/06/28 12:37:07;;;;;;;;;;;;;;;31.21;35.39;155515.50;1712437;82;20183;-60
2022/06/28 12:39:34;;;;;;;;;;;;;;;31.27;35.15;155531.27;1710182;84;20502;-61
2022/06/28 12:42:03;;;;;;;;;;;;;;;31.33;35.17;155545.73;1725050;82;21562;-60
2022/06/28 12:44:30;;;;;;;;;;;;;;;31.36;35.33;155554.95;1737382;82;20476;-60
2022/06/28 12:46:57;;;;;;;;;;;;;;;31.42;35.35;155570.72;1721412;82;20228;-60
2022/06/28 12:49:24;;;;;;;;;;;;;;;31.47;35.45;155581.22;1721641;82;20710;-61
2022/06/28 12:51:51;;;;;;;;;;;;;;;31.50;35.22;155590.44;1720586;81;20208;-61
2022/06/28 12:54:18;;;;;;;;;;;;;;;31.52;34.82;155594.41;1715037;82;21243;-61
2022/06/28 12:56:45;;;;;;;;;;;;;;;31.54;34.56;155599.66;1699363;84;20200;-61
2022/06/28 12:59:11;;;;;;;;;;;;;;;31.54;34.15;155599.66;1719837;82;20197;-61